KAXS/AXS METAR and TAF weather

Enter ICAO airport designator
Station Type Date Time Source
KAXS METAR 2020/07/15 07:35 UTC NOAA

KAXS 150735Z AUTO 14008KT 10SM CLR 29/16 A2979 RMK AO2 T02850158


Station Type Date Time Source
KAXS Decoded METAR 2020/07/15 07:35 UTC NOAA

Altus, Altus/Quartz Mountain Regional Airport, OK, United States (KAXS) 34-41-55N 099-20-17W
Jul 15, 2020 - 03:35 AM EDT / 2020.07.15 0735 UTC
Wind: from the SE (140 degrees) at 9 MPH (8 KT):0
Visibility: 10 mile(s):0
Sky conditions: clear
Temperature: 83.3 F (28.5 C)
Dew Point: 60.4 F (15.8 C)
Relative Humidity: 46%
Pressure (altimeter): 29.79 in. Hg (1008 hPa)
ob: KAXS 150735Z AUTO 14008KT 10SM CLR 29/16 A2979 RMK AO2 T02850158
cycle: 7

Station Type Date Time Source
KAXS TAF UTC NOAA

Error!

Example: see airport list